sensor_id;sensor_type;location;lat;lon;timestamp;pressure;altitude;pressure_sealevel;temperature;humidity
24788;BME280;12883;52.662;5.196;2023-02-18T00:01:22;102131.94;;;10.23;100.00
24788;BME280;12883;52.662;5.196;2023-02-18T00:03:48;102116.47;;;10.10;100.00
24788;BME280;12883;52.662;5.196;2023-02-18T00:06:26;102132.44;;;10.34;100.00
24788;BME280;12883;52.662;5.196;2023-02-18T00:08:52;102128.78;;;10.35;100.00
24788;BME280;12883;52.662;5.196;2023-02-18T00:11:19;102131.44;;;10.27;100.00
24788;BME280;12883;52.662;5.196;2023-02-18T00:13:56;102125.13;;;10.28;100.00
24788;BME280;12883;52.662;5.196;2023-02-18T00:16:22;102130.59;;;10.27;100.00
24788;BME280;12883;52.662;5.196;2023-02-18T00:18:48;102127.94;;;10.27;100.00
24788;BME280;12883;52.662;5.196;2023-02-18T00:21:13;102130.09;;;10.31;100.00
24788;BME280;12883;52.662;5.196;2023-02-18T00:23:39;102118.66;;;10.31;100.00
24788;BME280;12883;52.662;5.196;2023-02-18T00:26:07;102113.03;;;10.34;100.00
24788;BME280;12883;52.662;5.196;2023-02-18T00:28:33;102111.88;;;10.36;100.00
24788;BME280;12883;52.662;5.196;2023-02-18T00:31:08;102076.22;;;10.23;100.00
24788;BME280;12883;52.662;5.196;2023-02-18T00:33:34;102108.06;;;10.31;100.00
24788;BME280;12883;52.662;5.196;2023-02-18T00:36:02;102115.81;;;10.32;100.00
24788;BME280;12883;52.662;5.196;2023-02-18T00:38:27;102112.22;;;10.33;100.00
24788;BME280;12883;52.662;5.196;2023-02-18T00:40:53;102110.72;;;10.39;100.00
24788;BME280;12883;52.662;5.196;2023-02-18T00:43:18;102095.09;;;10.36;100.00
24788;BME280;12883;52.662;5.196;2023-02-18T00:45:43;102086.97;;;10.37;100.00
24788;BME280;12883;52.662;5.196;2023-02-18T00:48:09;102044.53;;;10.05;100.00
24788;BME280;12883;52.662;5.196;2023-02-18T00:50:34;102075.38;;;10.38;100.00
24788;BME280;12883;52.662;5.196;2023-02-18T00:52:59;102057.28;;;10.42;100.00
24788;BME280;12883;52.662;5.196;2023-02-18T00:55:25;102066.25;;;10.41;100.00
24788;BME280;12883;52.662;5.196;2023-02-18T00:57:50;102075.72;;;10.43;100.00
24788;BME280;12883;52.662;5.196;2023-02-18T01:00:15;102055.63;;;10.41;100.00
24788;BME280;12883;52.662;5.196;2023-02-18T01:02:41;102057.63;;;10.47;100.00
24788;BME280;12883;52.662;5.196;2023-02-18T01:05:06;102047.84;;;10.39;100.00
24788;BME280;12883;52.662;5.196;2023-02-18T01:07:32;102041.38;;;10.42;100.00
24788;BME280;12883;52.662;5.196;2023-02-18T01:09:57;102042.72;;;10.46;100.00
24788;BME280;12883;52.662;5.196;2023-02-18T01:12:22;102042.06;;;10.44;100.00
24788;BME280;12883;52.662;5.196;2023-02-18T01:14:48;102053.31;;;10.46;100.00
24788;BME280;12883;52.662;5.196;2023-02-18T01:17:13;102042.34;;;10.49;100.00
24788;BME280;12883;52.662;5.196;2023-02-18T01:19:38;102052.81;;;10.50;100.00
24788;BME280;12883;52.662;5.196;2023-02-18T01:22:04;102051.81;;;10.51;100.00
24788;BME280;12883;52.662;5.196;2023-02-18T01:24:31;102045.84;;;10.57;100.00
24788;BME280;12883;52.662;5.196;2023-02-18T01:26:56;102033.06;;;10.53;100.00
24788;BME280;12883;52.662;5.196;2023-02-18T01:29:22;102022.16;;;10.40;100.00
24788;BME280;12883;52.662;5.196;2023-02-18T01:31:47;102038.38;;;10.53;100.00
24788;BME280;12883;52.662;5.196;2023-02-18T01:34:12;102044.03;;;10.58;100.00
24788;BME280;12883;52.662;5.196;2023-02-18T01:36:39;102034.06;;;10.60;100.00
24788;BME280;12883;52.662;5.196;2023-02-18T01:39:05;102017.63;;;10.56;100.00
24788;BME280;12883;52.662;5.196;2023-02-18T01:41:31;102007.69;;;10.50;100.00
24788;BME280;12883;52.662;5.196;2023-02-18T01:44:20;101984.63;;;10.59;100.00
24788;BME280;12883;52.662;5.196;2023-02-18T01:46:46;101977.19;;;10.54;100.00
24788;BME280;12883;52.662;5.196;2023-02-18T01:49:16;101979.63;;;10.56;100.00
24788;BME280;12883;52.662;5.196;2023-02-18T01:51:49;101978.00;;;10.55;100.00
24788;BME280;12883;52.662;5.196;2023-02-18T01:54:21;101987.31;;;10.51;100.00
24788;BME280;12883;52.662;5.196;2023-02-18T01:57:11;101962.91;;;10.55;100.00
24788;BME280;12883;52.662;5.196;2023-02-18T01:59:55;101964.09;;;10.45;100.00
24788;BME280;12883;52.662;5.196;2023-02-18T02:02:24;101931.63;;;10.27;100.00
24788;BME280;12883;52.662;5.196;2023-02-18T02:04:51;101951.16;;;10.42;100.00
24788;BME280;12883;52.662;5.196;2023-02-18T02:07:18;101929.97;;;10.26;100.00
24788;BME280;12883;52.662;5.196;2023-02-18T02:09:46;101949.19;;;10.44;100.00
24788;BME280;12883;52.662;5.196;2023-02-18T02:12:54;101942.19;;;10.43;100.00
24788;BME280;12883;52.662;5.196;2023-02-18T02:15:42;101921.34;;;10.32;100.00
24788;BME280;12883;52.662;5.196;2023-02-18T02:23:45;101892.81;;;10.34;100.00
24788;BME280;12883;52.662;5.196;2023-02-18T02:45:24;101868.84;;;10.58;100.00
24788;BME280;12883;52.662;5.196;2023-02-18T02:48:09;101871.34;;;10.51;100.00
24788;BME280;12883;52.662;5.196;2023-02-18T02:50:53;101860.91;;;10.58;100.00
24788;BME280;12883;52.662;5.196;2023-02-18T02:53:27;101853.41;;;10.61;100.00
24788;BME280;12883;52.662;5.196;2023-02-18T02:55:54;101858.00;;;10.67;100.00
24788;BME280;12883;52.662;5.196;2023-02-18T02:58:20;101856.53;;;10.65;100.00
24788;BME280;12883;52.662;5.196;2023-02-18T03:12:18;101816.94;;;10.78;100.00
24788;BME280;12883;52.662;5.196;2023-02-18T03:15:03;101815.13;;;10.78;100.00
24788;BME280;12883;52.662;5.196;2023-02-18T03:17:45;101810.84;;;10.77;100.00
24788;BME280;12883;52.662;5.196;2023-02-18T03:20:22;101799.22;;;10.78;100.00
24788;BME280;12883;52.662;5.196;2023-02-18T03:22:50;101789.22;;;10.80;100.00
24788;BME280;12883;52.662;5.196;2023-02-18T03:25:17;101771.78;;;10.86;100.00
24788;BME280;12883;52.662;5.196;2023-02-18T03:27:51;101771.41;;;10.89;100.00
24788;BME280;12883;52.662;5.196;2023-02-18T03:30:23;101759.78;;;10.90;100.00
24788;BME280;12883;52.662;5.196;2023-02-18T03:32:54;101749.81;;;10.92;100.00
24788;BME280;12883;52.662;5.196;2023-02-18T03:35:21;101716.28;;;10.76;100.00
24788;BME280;12883;52.662;5.196;2023-02-18T03:37:54;101736.38;;;10.93;100.00
24788;BME280;12883;52.662;5.196;2023-02-18T03:40:26;101723.47;;;11.05;100.00
24788;BME280;12883;52.662;5.196;2023-02-18T03:42:51;101736.97;;;11.03;100.00
24788;BME280;12883;52.662;5.196;2023-02-18T03:45:17;101717.91;;;11.00;100.00
24788;BME280;12883;52.662;5.196;2023-02-18T03:47:43;101729.09;;;11.10;100.00
24788;BME280;12883;52.662;5.196;2023-02-18T03:50:09;101724.22;;;11.13;100.00
24788;BME280;12883;52.662;5.196;2023-02-18T03:52:35;101712.81;;;11.13;100.00
24788;BME280;12883;52.662;5.196;2023-02-18T03:55:04;101706.75;;;11.19;100.00
24788;BME280;12883;52.662;5.196;2023-02-18T03:57:30;101712.91;;;11.19;100.00
24788;BME280;12883;52.662;5.196;2023-02-18T03:59:55;101713.19;;;11.24;100.00
24788;BME280;12883;52.662;5.196;2023-02-18T04:02:21;101723.59;;;11.26;100.00
24788;BME280;12883;52.662;5.196;2023-02-18T04:04:46;101720.16;;;11.25;100.00
24788;BME280;12883;52.662;5.196;2023-02-18T04:07:11;101715.00;;;11.24;100.00
24788;BME280;12883;52.662;5.196;2023-02-18T04:09:37;101711.06;;;11.20;100.00
24788;BME280;12883;52.662;5.196;2023-02-18T04:12:02;101696.31;;;11.32;100.00
24788;BME280;12883;52.662;5.196;2023-02-18T04:14:28;101690.66;;;11.35;100.00
24788;BME280;12883;52.662;5.196;2023-02-18T04:16:53;101675.34;;;11.37;100.00
24788;BME280;12883;52.662;5.196;2023-02-18T04:19:18;101682.94;;;11.40;100.00
24788;BME280;12883;52.662;5.196;2023-02-18T04:21:44;101668.00;;;11.39;100.00
24788;BME280;12883;52.662;5.196;2023-02-18T04:24:09;101663.53;;;11.39;100.00
24788;BME280;12883;52.662;5.196;2023-02-18T04:26:34;101656.19;;;11.41;100.00
24788;BME280;12883;52.662;5.196;2023-02-18T04:29:00;101649.41;;;11.39;100.00
24788;BME280;12883;52.662;5.196;2023-02-18T04:31:25;101650.59;;;11.36;100.00
24788;BME280;12883;52.662;5.196;2023-02-18T04:33:50;101666.19;;;11.39;100.00
24788;BME280;12883;52.662;5.196;2023-02-18T04:36:16;101657.75;;;11.36;100.00
24788;BME280;12883;52.662;5.196;2023-02-18T04:38:41;101659.13;;;11.32;100.00
24788;BME280;12883;52.662;5.196;2023-02-18T04:41:07;101633.19;;;11.05;100.00
24788;BME280;12883;52.662;5.196;2023-02-18T04:43:33;101654.19;;;11.29;100.00
24788;BME280;12883;52.662;5.196;2023-02-18T04:45:58;101643.09;;;11.25;100.00
24788;BME280;12883;52.662;5.196;2023-02-18T04:48:23;101652.53;;;11.28;100.00
24788;BME280;12883;52.662;5.196;2023-02-18T04:50:49;101639.44;;;11.26;100.00
24788;BME280;12883;52.662;5.196;2023-02-18T04:53:14;101626.31;;;11.25;100.00
24788;BME280;12883;52.662;5.196;2023-02-18T04:55:40;101638.97;;;11.23;100.00
24788;BME280;12883;52.662;5.196;2023-02-18T04:58:05;101622.28;;;11.29;100.00
24788;BME280;12883;52.662;5.196;2023-02-18T05:00:30;101631.91;;;11.30;100.00
24788;BME280;12883;52.662;5.196;2023-02-18T05:02:56;101628.88;;;11.33;100.00
24788;BME280;12883;52.662;5.196;2023-02-18T05:05:21;101617.53;;;11.24;100.00
24788;BME280;12883;52.662;5.196;2023-02-18T05:07:46;101608.63;;;11.32;100.00
24788;BME280;12883;52.662;5.196;2023-02-18T05:10:15;101613.31;;;11.30;100.00
24788;BME280;12883;52.662;5.196;2023-02-18T05:12:41;101595.34;;;11.32;100.00
24788;BME280;12883;52.662;5.196;2023-02-18T05:15:07;101589.13;;;11.25;100.00
24788;BME280;12883;52.662;5.196;2023-02-18T05:17:33;101588.03;;;11.34;100.00
24788;BME280;12883;52.662;5.196;2023-02-18T05:19:58;101586.13;;;11.28;100.00
24788;BME280;12883;52.662;5.196;2023-02-18T05:22:24;101585.38;;;11.34;100.00
24788;BME280;12883;52.662;5.196;2023-02-18T05:24:49;101601.31;;;11.34;100.00
24788;BME280;12883;52.662;5.196;2023-02-18T05:27:14;101594.63;;;11.38;100.00
24788;BME280;12883;52.662;5.196;2023-02-18T05:29:40;101603.22;;;11.40;100.00
24788;BME280;12883;52.662;5.196;2023-02-18T05:32:05;101595.91;;;11.42;100.00
24788;BME280;12883;52.662;5.196;2023-02-18T05:34:30;101580.88;;;11.49;100.00
24788;BME280;12883;52.662;5.196;2023-02-18T05:36:56;101597.16;;;11.46;100.00
24788;BME280;12883;52.662;5.196;2023-02-18T05:39:21;101595.06;;;11.41;100.00
24788;BME280;12883;52.662;5.196;2023-02-18T05:41:46;101591.66;;;11.47;100.00
24788;BME280;12883;52.662;5.196;2023-02-18T05:44:12;101586.53;;;11.46;100.00
24788;BME280;12883;52.662;5.196;2023-02-18T05:47:16;101590.84;;;11.47;100.00
24788;BME280;12883;52.662;5.196;2023-02-18T05:49:41;101603.66;;;11.43;100.00
24788;BME280;12883;52.662;5.196;2023-02-18T05:52:07;101594.72;;;11.44;100.00
24788;BME280;12883;52.662;5.196;2023-02-18T05:54:34;101591.84;;;11.46;100.00
24788;BME280;12883;52.662;5.196;2023-02-18T05:57:00;101583.25;;;11.44;100.00
24788;BME280;12883;52.662;5.196;2023-02-18T05:59:25;101542.78;;;11.27;100.00
24788;BME280;12883;52.662;5.196;2023-02-18T06:01:51;101563.34;;;11.40;100.00
24788;BME280;12883;52.662;5.196;2023-02-18T06:04:16;101561.34;;;11.42;100.00
24788;BME280;12883;52.662;5.196;2023-02-18T06:06:42;101552.09;;;11.38;100.00
24788;BME280;12883;52.662;5.196;2023-02-18T06:09:08;101537.78;;;11.39;100.00
24788;BME280;12883;52.662;5.196;2023-02-18T06:11:33;101541.13;;;11.26;100.00
24788;BME280;12883;52.662;5.196;2023-02-18T06:13:59;101546.72;;;11.31;100.00
24788;BME280;12883;52.662;5.196;2023-02-18T06:16:24;101543.31;;;11.37;100.00
24788;BME280;12883;52.662;5.196;2023-02-18T06:18:50;101546.50;;;11.33;100.00
24788;BME280;12883;52.662;5.196;2023-02-18T06:21:15;101519.88;;;11.12;100.00
24788;BME280;12883;52.662;5.196;2023-02-18T06:23:41;101560.56;;;11.27;100.00
24788;BME280;12883;52.662;5.196;2023-02-18T06:26:06;101561.00;;;11.30;100.00
24788;BME280;12883;52.662;5.196;2023-02-18T06:28:32;101560.19;;;11.30;100.00
24788;BME280;12883;52.662;5.196;2023-02-18T06:30:57;101540.94;;;11.28;100.00
24788;BME280;12883;52.662;5.196;2023-02-18T06:33:23;101551.94;;;11.25;100.00
24788;BME280;12883;52.662;5.196;2023-02-18T06:35:53;101538.03;;;11.23;100.00
24788;BME280;12883;52.662;5.196;2023-02-18T06:38:19;101548.72;;;11.29;100.00
24788;BME280;12883;52.662;5.196;2023-02-18T06:40:46;101527.91;;;11.33;100.00
24788;BME280;12883;52.662;5.196;2023-02-18T06:43:11;101543.41;;;11.29;100.00
24788;BME280;12883;52.662;5.196;2023-02-18T06:45:38;101547.53;;;11.32;100.00
24788;BME280;12883;52.662;5.196;2023-02-18T06:48:03;101537.72;;;11.32;100.00
24788;BME280;12883;52.662;5.196;2023-02-18T06:50:28;101538.47;;;11.26;100.00
24788;BME280;12883;52.662;5.196;2023-02-18T06:52:54;101543.03;;;11.32;100.00
24788;BME280;12883;52.662;5.196;2023-02-18T06:55:20;101522.41;;;11.34;100.00
24788;BME280;12883;52.662;5.196;2023-02-18T06:57:45;101529.38;;;11.35;100.00
24788;BME280;12883;52.662;5.196;2023-02-18T07:00:11;101525.69;;;11.36;100.00
24788;BME280;12883;52.662;5.196;2023-02-18T07:02:36;101532.47;;;11.39;100.00
24788;BME280;12883;52.662;5.196;2023-02-18T07:05:02;101523.25;;;11.35;100.00
24788;BME280;12883;52.662;5.196;2023-02-18T07:07:27;101524.06;;;11.35;100.00
24788;BME280;12883;52.662;5.196;2023-02-18T07:09:52;101518.28;;;11.32;100.00
24788;BME280;12883;52.662;5.196;2023-02-18T07:12:18;101501.34;;;11.33;100.00
24788;BME280;12883;52.662;5.196;2023-02-18T07:14:43;101523.13;;;11.43;100.00
24788;BME280;12883;52.662;5.196;2023-02-18T07:17:09;101520.47;;;11.43;100.00
24788;BME280;12883;52.662;5.196;2023-02-18T07:19:34;101521.94;;;11.45;100.00
24788;BME280;12883;52.662;5.196;2023-02-18T07:21:59;101511.66;;;11.42;100.00
24788;BME280;12883;52.662;5.196;2023-02-18T07:24:25;101522.50;;;11.41;100.00
24788;BME280;12883;52.662;5.196;2023-02-18T07:26:51;101534.78;;;11.42;100.00
24788;BME280;12883;52.662;5.196;2023-02-18T07:29:16;101530.84;;;11.38;100.00
24788;BME280;12883;52.662;5.196;2023-02-18T07:31:42;101519.19;;;11.39;100.00
24788;BME280;12883;52.662;5.196;2023-02-18T07:34:07;101547.16;;;11.35;100.00
24788;BME280;12883;52.662;5.196;2023-02-18T07:36:32;101515.06;;;11.36;100.00
24788;BME280;12883;52.662;5.196;2023-02-18T07:38:57;101531.22;;;11.35;100.00
24788;BME280;12883;52.662;5.196;2023-02-18T07:41:23;101524.72;;;11.37;100.00
24788;BME280;12883;52.662;5.196;2023-02-18T07:43:48;101530.47;;;11.41;100.00
24788;BME280;12883;52.662;5.196;2023-02-18T07:46:14;101530.84;;;11.38;100.00
24788;BME280;12883;52.662;5.196;2023-02-18T07:48:40;101539.09;;;11.43;100.00
24788;BME280;12883;52.662;5.196;2023-02-18T07:51:07;101528.81;;;11.40;100.00
24788;BME280;12883;52.662;5.196;2023-02-18T07:53:33;101549.44;;;11.38;100.00
24788;BME280;12883;52.662;5.196;2023-02-18T07:55:58;101542.94;;;11.40;100.00
24788;BME280;12883;52.662;5.196;2023-02-18T07:58:30;101543.50;;;11.36;100.00
24788;BME280;12883;52.662;5.196;2023-02-18T08:00:56;101531.13;;;11.43;100.00
24788;BME280;12883;52.662;5.196;2023-02-18T08:03:28;101544.66;;;11.48;100.00
24788;BME280;12883;52.662;5.196;2023-02-18T08:05:54;101556.03;;;11.42;100.00
24788;BME280;12883;52.662;5.196;2023-02-18T08:08:24;101542.75;;;11.42;100.00
24788;BME280;12883;52.662;5.196;2023-02-18T08:10:51;101504.84;;;11.19;100.00
24788;BME280;12883;52.662;5.196;2023-02-18T08:13:17;101537.44;;;11.42;100.00
24788;BME280;12883;52.662;5.196;2023-02-18T08:15:42;101538.63;;;11.39;100.00
24788;BME280;12883;52.662;5.196;2023-02-18T08:18:14;101540.22;;;11.34;100.00
24788;BME280;12883;52.662;5.196;2023-02-18T08:20:39;101533.66;;;11.36;100.00
24788;BME280;12883;52.662;5.196;2023-02-18T08:23:05;101543.84;;;11.33;100.00
24788;BME280;12883;52.662;5.196;2023-02-18T08:25:31;101548.34;;;11.32;100.00
24788;BME280;12883;52.662;5.196;2023-02-18T08:27:57;101548.09;;;11.27;100.00
24788;BME280;12883;52.662;5.196;2023-02-18T08:30:22;101555.13;;;11.35;100.00
24788;BME280;12883;52.662;5.196;2023-02-18T08:32:48;101544.50;;;11.35;100.00
24788;BME280;12883;52.662;5.196;2023-02-18T08:35:13;101555.78;;;11.37;100.00
24788;BME280;12883;52.662;5.196;2023-02-18T08:37:38;101565.03;;;11.41;100.00
24788;BME280;12883;52.662;5.196;2023-02-18T08:40:05;101569.69;;;11.39;100.00
24788;BME280;12883;52.662;5.196;2023-02-18T08:42:30;101557.69;;;11.28;100.00
24788;BME280;12883;52.662;5.196;2023-02-18T08:44:56;101560.19;;;11.30;100.00
24788;BME280;12883;52.662;5.196;2023-02-18T08:47:21;101582.41;;;11.43;100.00
24788;BME280;12883;52.662;5.196;2023-02-18T08:49:46;101565.38;;;11.38;100.00
24788;BME280;12883;52.662;5.196;2023-02-18T08:52:12;101583.81;;;11.39;100.00
24788;BME280;12883;52.662;5.196;2023-02-18T08:54:37;101581.03;;;11.33;100.00
24788;BME280;12883;52.662;5.196;2023-02-18T08:57:03;101581.16;;;11.25;100.00
24788;BME280;12883;52.662;5.196;2023-02-18T08:59:28;101584.25;;;11.43;100.00
24788;BME280;12883;52.662;5.196;2023-02-18T09:01:53;101509.47;;;10.96;100.00
24788;BME280;12883;52.662;5.196;2023-02-18T09:04:19;101593.34;;;11.34;100.00
24788;BME280;12883;52.662;5.196;2023-02-18T09:06:46;101583.97;;;11.38;100.00
24788;BME280;12883;52.662;5.196;2023-02-18T09:09:12;101585.38;;;11.34;100.00
24788;BME280;12883;52.662;5.196;2023-02-18T09:11:38;101583.97;;;11.38;100.00
24788;BME280;12883;52.662;5.196;2023-02-18T09:14:03;101573.81;;;11.41;100.00
24788;BME280;12883;52.662;5.196;2023-02-18T09:16:29;101551.94;;;11.25;100.00
24788;BME280;12883;52.662;5.196;2023-02-18T09:18:55;101578.31;;;11.41;100.00
24788;BME280;12883;52.662;5.196;2023-02-18T09:21:21;101582.88;;;11.47;100.00
24788;BME280;12883;52.662;5.196;2023-02-18T09:23:48;101589.84;;;11.48;100.00
24788;BME280;12883;52.662;5.196;2023-02-18T09:26:15;101586.91;;;11.43;100.00
24788;BME280;12883;52.662;5.196;2023-02-18T09:28:41;101586.63;;;11.52;100.00
24788;BME280;12883;52.662;5.196;2023-02-18T09:31:11;101595.22;;;11.54;100.00
24788;BME280;12883;52.662;5.196;2023-02-18T09:33:39;101597.72;;;11.56;100.00
24788;BME280;12883;52.662;5.196;2023-02-18T09:36:06;101600.38;;;11.56;100.00
24788;BME280;12883;52.662;5.196;2023-02-18T09:38:32;101598.06;;;11.53;100.00
24788;BME280;12883;52.662;5.196;2023-02-18T09:40:58;101588.38;;;11.60;100.00
24788;BME280;12883;52.662;5.196;2023-02-18T09:43:31;101603.69;;;11.58;100.00
24788;BME280;12883;52.662;5.196;2023-02-18T09:45:58;101592.88;;;11.59;100.00
24788;BME280;12883;52.662;5.196;2023-02-18T09:48:27;101609.06;;;11.64;100.00
24788;BME280;12883;52.662;5.196;2023-02-18T09:50:55;101614.94;;;11.74;100.00
24788;BME280;12883;52.662;5.196;2023-02-18T09:53:21;101621.97;;;11.82;100.00
24788;BME280;12883;52.662;5.196;2023-02-18T09:55:48;101611.22;;;11.90;100.00
24788;BME280;12883;52.662;5.196;2023-02-18T09:58:20;101623.63;;;11.83;100.00
24788;BME280;12883;52.662;5.196;2023-02-18T10:03:50;101614.34;;;11.93;100.00
24788;BME280;12883;52.662;5.196;2023-02-18T10:06:29;101625.47;;;11.82;100.00
24788;BME280;12883;52.662;5.196;2023-02-18T10:08:57;101611.38;;;12.03;100.00
24788;BME280;12883;52.662;5.196;2023-02-18T10:11:41;101616.34;;;11.91;100.00
24788;BME280;12883;52.662;5.196;2023-02-18T10:14:11;101601.03;;;11.93;100.00
24788;BME280;12883;52.662;5.196;2023-02-18T10:16:38;101627.97;;;12.05;100.00
24788;BME280;12883;52.662;5.196;2023-02-18T10:21:41;101615.91;;;12.09;100.00
24788;BME280;12883;52.662;5.196;2023-02-18T10:24:29;101620.63;;;12.07;100.00
24788;BME280;12883;52.662;5.196;2023-02-18T10:26:56;101614.28;;;12.08;100.00
24788;BME280;12883;52.662;5.196;2023-02-18T10:29:23;101635.25;;;12.17;100.00
24788;BME280;12883;52.662;5.196;2023-02-18T10:32:15;101581.38;;;11.73;100.00
24788;BME280;12883;52.662;5.196;2023-02-18T10:43:22;101667.44;;;12.22;100.00
24788;BME280;12883;52.662;5.196;2023-02-18T10:45:58;101666.00;;;12.20;100.00
24788;BME280;12883;52.662;5.196;2023-02-18T10:48:40;101652.19;;;12.31;100.00
24788;BME280;12883;52.662;5.196;2023-02-18T10:51:20;101686.00;;;12.37;100.00
24788;BME280;12883;52.662;5.196;2023-02-18T10:53:48;101664.09;;;12.35;100.00
24788;BME280;12883;52.662;5.196;2023-02-18T10:56:31;101668.25;;;12.44;100.00
24788;BME280;12883;52.662;5.196;2023-02-18T10:59:30;101662.63;;;12.53;100.00
24788;BME280;12883;52.662;5.196;2023-02-18T11:01:59;101685.66;;;12.61;100.00
24788;BME280;12883;52.662;5.196;2023-02-18T11:04:33;101678.28;;;12.63;100.00
24788;BME280;12883;52.662;5.196;2023-02-18T11:07:04;101648.22;;;12.69;100.00
24788;BME280;12883;52.662;5.196;2023-02-18T11:09:40;101667.75;;;12.76;100.00
24788;BME280;12883;52.662;5.196;2023-02-18T11:12:14;101642.75;;;12.77;100.00
24788;BME280;12883;52.662;5.196;2023-02-18T11:14:49;101670.84;;;12.79;100.00
24788;BME280;12883;52.662;5.196;2023-02-18T11:17:29;101654.69;;;12.81;100.00
24788;BME280;12883;52.662;5.196;2023-02-18T11:19:57;101677.19;;;12.78;100.00
24788;BME280;12883;52.662;5.196;2023-02-18T11:22:31;101666.16;;;12.81;100.00
24788;BME280;12883;52.662;5.196;2023-02-18T11:25:03;101668.63;;;12.83;100.00
24788;BME280;12883;52.662;5.196;2023-02-18T11:27:41;101687.84;;;12.78;100.00
24788;BME280;12883;52.662;5.196;2023-02-18T11:30:18;101677.78;;;12.74;100.00
24788;BME280;12883;52.662;5.196;2023-02-18T11:32:48;101678.59;;;12.74;100.00
24788;BME280;12883;52.662;5.196;2023-02-18T11:35:24;101668.19;;;12.79;100.00
24788;BME280;12883;52.662;5.196;2023-02-18T11:37:50;101694.38;;;12.76;100.00
24788;BME280;12883;52.662;5.196;2023-02-18T11:40:35;101684.75;;;12.75;100.00
24788;BME280;12883;52.662;5.196;2023-02-18T11:43:05;101681.66;;;12.71;100.00
24788;BME280;12883;52.662;5.196;2023-02-18T11:45:33;101679.44;;;12.75;100.00
24788;BME280;12883;52.662;5.196;2023-02-18T11:48:00;101664.47;;;12.74;100.00
24788;BME280;12883;52.662;5.196;2023-02-18T11:50:31;101675.94;;;12.74;100.00
24788;BME280;12883;52.662;5.196;2023-02-18T11:52:56;101668.00;;;12.81;100.00
24788;BME280;12883;52.662;5.196;2023-02-18T11:55:28;101676.63;;;12.83;100.00
24788;BME280;12883;52.662;5.196;2023-02-18T11:58:01;101675.59;;;12.84;100.00
24788;BME280;12883;52.662;5.196;2023-02-18T12:00:40;101681.75;;;12.84;100.00
24788;BME280;12883;52.662;5.196;2023-02-18T12:03:14;101682.56;;;12.85;100.00
24788;BME280;12883;52.662;5.196;2023-02-18T12:05:43;101672.56;;;12.87;100.00
24788;BME280;12883;52.662;5.196;2023-02-18T12:08:18;101618.91;;;12.62;100.00
24788;BME280;12883;52.662;5.196;2023-02-18T12:10:50;101669.78;;;12.95;100.00
24788;BME280;12883;52.662;5.196;2023-02-18T12:13:34;101670.59;;;12.95;100.00
24788;BME280;12883;52.662;5.196;2023-02-18T12:27:33;101675.44;;;13.13;100.00
24788;BME280;12883;52.662;5.196;2023-02-18T12:32:54;101682.44;;;13.14;100.00
24788;BME280;12883;52.662;5.196;2023-02-18T12:43:50;101683.88;;;13.16;100.00
24788;BME280;12883;52.662;5.196;2023-02-18T12:52:01;101696.38;;;13.16;100.00
24788;BME280;12883;52.662;5.196;2023-02-18T12:54:47;101699.75;;;13.24;100.00
24788;BME280;12883;52.662;5.196;2023-02-18T12:57:41;101715.66;;;13.18;100.00
24788;BME280;12883;52.662;5.196;2023-02-18T13:13:40;101707.50;;;13.26;100.00
24788;BME280;12883;52.662;5.196;2023-02-18T13:16:12;101692.13;;;13.21;100.00
24788;BME280;12883;52.662;5.196;2023-02-18T13:18:44;101665.97;;;13.04;100.00
24788;BME280;12883;52.662;5.196;2023-02-18T13:21:13;101702.53;;;13.16;100.00
24788;BME280;12883;52.662;5.196;2023-02-18T13:26:20;101719.00;;;13.26;100.00
24788;BME280;12883;52.662;5.196;2023-02-18T13:29:19;101719.00;;;13.26;100.00
24788;BME280;12883;52.662;5.196;2023-02-18T13:31:51;101719.03;;;13.33;100.00
24788;BME280;12883;52.662;5.196;2023-02-18T13:34:35;101719.00;;;13.26;100.00
24788;BME280;12883;52.662;5.196;2023-02-18T13:39:47;101733.56;;;13.24;100.00
24788;BME280;12883;52.662;5.196;2023-02-18T13:47:39;101729.09;;;13.31;100.00
24788;BME280;12883;52.662;5.196;2023-02-18T13:52:48;101737.94;;;13.31;100.00
24788;BME280;12883;52.662;5.196;2023-02-18T13:55:23;101742.00;;;13.34;100.00
24788;BME280;12883;52.662;5.196;2023-02-18T13:57:53;101742.38;;;13.24;100.00
24788;BME280;12883;52.662;5.196;2023-02-18T14:00:23;101743.19;;;13.25;100.00
24788;BME280;12883;52.662;5.196;2023-02-18T14:02:57;101743.81;;;13.27;100.00
24788;BME280;12883;52.662;5.196;2023-02-18T14:05:25;101751.19;;;13.25;100.00
24788;BME280;12883;52.662;5.196;2023-02-18T14:08:33;101758.69;;;13.15;100.00
24788;BME280;12883;52.662;5.196;2023-02-18T14:16:14;101760.16;;;13.17;100.00
24788;BME280;12883;52.662;5.196;2023-02-18T14:21:39;101761.28;;;13.08;100.00
24788;BME280;12883;52.662;5.196;2023-02-18T14:24:06;101764.97;;;13.07;100.00
24788;BME280;12883;52.662;5.196;2023-02-18T14:26:45;101779.91;;;13.02;100.00
24788;BME280;12883;52.662;5.196;2023-02-18T14:29:19;101784.22;;;13.03;100.00
24788;BME280;12883;52.662;5.196;2023-02-18T14:31:51;101764.69;;;12.96;100.00
24788;BME280;12883;52.662;5.196;2023-02-18T14:34:34;101771.47;;;12.98;100.00
24788;BME280;12883;52.662;5.196;2023-02-18T14:47:28;101763.38;;;12.92;100.00
24788;BME280;12883;52.662;5.196;2023-02-18T14:50:03;101780.59;;;12.89;100.00
24788;BME280;12883;52.662;5.196;2023-02-18T14:52:33;101789.78;;;12.87;100.00
24788;BME280;12883;52.662;5.196;2023-02-18T14:55:02;101741.56;;;12.61;100.00